Time;durP1;ratioP1;P1;durP2;ratioP2;P2;SDS_P1;SDS_P2;PMS_P1;PMS_P2;Temp;Humidity;BMP_temperature;BMP_pressure;BME280_temperature;BME280_humidity;BME280_pressure;Samples;Min_cycle;Max_cycle;Signal;HPM_P1;HPM_P2
2022/12/06 00:01:41;;;;;;;;;;;;;;;9.96;67.38;100684.72;5334173;32;35657;-84
2022/12/06 00:04:44;;;;;;;;;;;;;;;10.04;66.63;100670.44;5324924;32;34228;-84
2022/12/06 00:07:48;;;;;;;;;;;;;;;8.86;70.16;100677.50;5343117;32;35698;-65
2022/12/06 00:10:50;;;;;;;;;;;;;;;9.03;72.19;100671.81;5340953;32;35552;-65
2022/12/06 00:13:56;;;;;;;;;;;;;;;8.69;72.74;100670.09;5347370;32;34778;-75
2022/12/06 00:16:57;;;;;;;;;;;;;;;9.42;69.72;100678.50;5329430;32;34814;-84
2022/12/06 00:19:59;;;;;;;;;;;;;;;9.74;68.03;100679.31;5352255;32;35570;-84
2022/12/06 00:23:02;;;;;;;;;;;;;;;10.02;67.07;100671.41;5329581;32;34793;-83
2022/12/06 00:26:04;;;;;;;;;;;;;;;10.01;67.62;100673.19;5315130;32;34765;-84
2022/12/06 00:29:06;;;;;;;;;;;;;;;9.69;68.27;100671.56;5352750;32;36409;-83
2022/12/06 00:32:08;;;;;;;;;;;;;;;9.82;67.02;100668.56;5337396;32;44429;-65
2022/12/06 00:35:16;;;;;;;;;;;;;;;10.37;65.21;100665.03;5341690;32;35041;-66
2022/12/06 00:38:18;;;;;;;;;;;;;;;9.94;67.20;100642.78;5339735;32;35082;-66
2022/12/06 00:41:21;;;;;;;;;;;;;;;8.72;72.89;100640.34;5344015;32;36776;-84
2022/12/06 00:44:23;;;;;;;;;;;;;;;8.37;75.78;100644.72;5325700;32;35359;-66
2022/12/06 00:47:24;;;;;;;;;;;;;;;8.03;75.95;100644.69;5337939;32;34981;-84
2022/12/06 00:50:26;;;;;;;;;;;;;;;8.90;72.37;100639.81;5339970;32;35266;-66
2022/12/06 00:53:28;;;;;;;;;;;;;;;9.17;72.02;100628.53;5337926;32;34899;-85
2022/12/06 00:56:30;;;;;;;;;;;;;;;9.22;71.90;100628.41;5341877;32;35246;-84
2022/12/06 00:59:32;;;;;;;;;;;;;;;9.52;69.85;100633.63;5327817;32;34902;-65
2022/12/06 01:02:34;;;;;;;;;;;;;;;9.59;68.86;100632.53;5345356;32;35251;-85
2022/12/06 01:05:39;;;;;;;;;;;;;;;9.32;70.00;100631.59;5343642;32;34235;-83
2022/12/06 01:08:42;;;;;;;;;;;;;;;9.42;68.69;100619.94;5320138;32;44955;-83
2022/12/06 01:11:43;;;;;;;;;;;;;;;7.85;74.84;100604.97;5353603;32;35396;-65
2022/12/06 01:14:45;;;;;;;;;;;;;;;8.20;76.15;100599.78;5339392;32;36985;-84
2022/12/06 01:17:47;;;;;;;;;;;;;;;8.99;72.02;100612.47;5343855;32;35557;-82
2022/12/06 01:20:49;;;;;;;;;;;;;;;9.23;69.87;100599.50;5334236;32;34716;-66
2022/12/06 01:23:53;;;;;;;;;;;;;;;9.14;69.99;100602.38;5337577;32;35459;-82
2022/12/06 01:26:54;;;;;;;;;;;;;;;8.97;70.41;100596.81;5328233;32;34537;-67
2022/12/06 01:29:56;;;;;;;;;;;;;;;9.42;68.51;100591.09;5328011;32;35051;-84
2022/12/06 01:32:59;;;;;;;;;;;;;;;9.59;67.44;100585.28;5343690;32;34666;-84
2022/12/06 01:36:01;;;;;;;;;;;;;;;8.96;69.82;100581.97;5328845;32;34367;-65
2022/12/06 01:39:05;;;;;;;;;;;;;;;9.18;68.72;100572.56;5351030;32;34949;-65
2022/12/06 01:42:08;;;;;;;;;;;;;;;7.90;72.49;100555.16;5321873;32;44540;-65
2022/12/06 01:45:10;;;;;;;;;;;;;;;8.19;74.13;100548.31;5332698;32;34795;-66
2022/12/06 01:48:12;;;;;;;;;;;;;;;8.58;71.52;100531.53;5354164;32;34854;-80
2022/12/06 01:51:14;;;;;;;;;;;;;;;8.11;73.31;100531.06;5334166;32;34795;-75
2022/12/06 01:54:16;;;;;;;;;;;;;;;8.62;71.84;100527.03;5355882;32;35265;-68
2022/12/06 01:57:18;;;;;;;;;;;;;;;8.24;73.36;100528.09;5322481;32;35520;-84
2022/12/06 02:00:19;;;;;;;;;;;;;;;8.47;72.28;100528.34;5338117;32;35276;-74
2022/12/06 02:03:22;;;;;;;;;;;;;;;8.73;69.79;100531.97;5325716;32;34554;-64
2022/12/06 02:06:24;;;;;;;;;;;;;;;8.47;70.47;100535.34;5348305;32;35381;-65
2022/12/06 02:09:26;;;;;;;;;;;;;;;8.92;69.01;100517.44;5345446;32;36468;-86
2022/12/06 02:12:28;;;;;;;;;;;;;;;9.36;67.23;100554.53;5310321;32;34738;-85
2022/12/06 02:15:40;;;;;;;;;;;;;;;8.75;69.02;100586.06;5338791;32;36278;-86
2022/12/06 02:18:45;;;;;;;;;;;;;;;8.60;69.39;100589.13;5336072;32;44328;-85
2022/12/06 02:21:47;;;;;;;;;;;;;;;7.56;74.26;100583.91;5342452;32;34424;-65
2022/12/06 02:24:54;;;;;;;;;;;;;;;8.17;72.33;100569.28;5325039;32;34691;-66
2022/12/06 02:28:15;;;;;;;;;;;;;;;8.97;68.89;100574.97;5339412;32;34794;-66
2022/12/06 02:31:17;;;;;;;;;;;;;;;9.01;68.20;100584.44;5342548;32;37251;-66
2022/12/06 02:34:21;;;;;;;;;;;;;;;8.72;69.87;100577.44;5326103;32;36072;-66
2022/12/06 02:37:29;;;;;;;;;;;;;;;9.47;66.37;100576.06;5339679;32;35736;-87
2022/12/06 02:40:33;;;;;;;;;;;;;;;8.38;69.70;100574.00;5334664;32;35552;-86
2022/12/06 02:43:46;;;;;;;;;;;;;;;8.61;70.27;100585.59;5320596;32;34915;-85
2022/12/06 02:46:48;;;;;;;;;;;;;;;9.38;67.15;100598.19;5344402;32;34834;-87
2022/12/06 02:49:53;;;;;;;;;;;;;;;8.74;70.59;100592.22;5330181;32;35289;-75
2022/12/06 02:52:55;;;;;;;;;;;;;;;8.70;71.19;100605.47;5349756;32;34976;-85
2022/12/06 02:55:57;;;;;;;;;;;;;;;8.91;69.53;100586.50;5328061;32;35208;-65
2022/12/06 02:58:59;;;;;;;;;;;;;;;8.50;70.43;100582.41;5349047;32;34866;-85
2022/12/06 03:02:01;;;;;;;;;;;;;;;9.46;67.00;100582.19;5335888;32;34752;-85
2022/12/06 03:05:13;;;;;;;;;;;;;;;9.44;66.91;100565.66;5325230;32;34852;-85
2022/12/06 03:08:21;;;;;;;;;;;;;;;8.94;68.95;100555.78;5351036;32;45110;-85
2022/12/06 03:11:24;;;;;;;;;;;;;;;9.30;68.02;100534.59;5327616;32;35664;-66
2022/12/06 03:14:27;;;;;;;;;;;;;;;7.96;74.02;100539.28;5346412;32;34112;-86
2022/12/06 03:17:41;;;;;;;;;;;;;;;7.12;77.25;100543.09;5322179;32;35692;-66
2022/12/06 03:20:56;;;;;;;;;;;;;;;9.03;70.34;100540.72;5338832;32;44484;-65
2022/12/06 03:23:58;;;;;;;;;;;;;;;8.49;70.67;100530.91;5353036;32;34369;-65
2022/12/06 03:27:00;;;;;;;;;;;;;;;8.78;70.12;100514.38;5324417;32;42291;-65
2022/12/06 03:30:04;;;;;;;;;;;;;;;8.28;72.77;100504.41;5353543;32;34835;-65
2022/12/06 03:33:06;;;;;;;;;;;;;;;7.05;76.49;100495.31;5336467;32;34844;-65
2022/12/06 03:36:09;;;;;;;;;;;;;;;7.60;76.46;100481.78;5339794;32;44614;-66
2022/12/06 03:39:11;;;;;;;;;;;;;;;7.69;76.50;100478.06;5338188;32;35753;-86
2022/12/06 03:42:13;;;;;;;;;;;;;;;8.10;74.52;100484.81;5330644;32;35789;-67
2022/12/06 03:45:15;;;;;;;;;;;;;;;8.64;72.26;100489.44;5355884;32;35351;-85
2022/12/06 03:48:36;;;;;;;;;;;;;;;8.98;70.25;100496.28;5325040;32;35629;-65
2022/12/06 03:51:38;;;;;;;;;;;;;;;9.17;68.62;100484.31;5349064;32;45133;-66
2022/12/06 03:54:40;;;;;;;;;;;;;;;7.48;75.34;100482.09;5333186;32;34352;-86
2022/12/06 03:57:42;;;;;;;;;;;;;;;7.75;75.41;100477.06;5331238;32;35420;-85
2022/12/06 04:00:44;;;;;;;;;;;;;;;8.85;70.82;100459.09;5357255;32;35914;-66
2022/12/06 04:03:46;;;;;;;;;;;;;;;7.29;75.61;100465.16;5327589;32;34947;-74
2022/12/06 04:06:48;;;;;;;;;;;;;;;6.79;80.03;100459.34;5345328;32;34983;-85
2022/12/06 04:09:55;;;;;;;;;;;;;;;7.82;76.47;100452.44;5339409;32;34921;-66
2022/12/06 04:13:00;;;;;;;;;;;;;;;7.86;75.89;100452.34;5346970;32;34999;-84
2022/12/06 04:16:02;;;;;;;;;;;;;;;8.48;73.13;100454.09;5327334;32;35222;-84
2022/12/06 04:19:04;;;;;;;;;;;;;;;8.40;74.04;100454.34;5334963;32;37420;-85
2022/12/06 04:25:26;;;;;;;;;;;;;;;8.29;72.74;100461.59;5323651;32;35364;-84
2022/12/06 04:38:40;;;;;;;;;;;;;;;6.96;80.89;100527.75;5342453;32;34865;-65
2022/12/06 04:45:23;;;;;;;;;;;;;;;7.50;74.82;100513.44;5330843;32;35079;-84
2022/12/06 04:48:25;;;;;;;;;;;;;;;7.56;76.30;100511.53;5334880;32;35268;-85
2022/12/06 04:51:27;;;;;;;;;;;;;;;7.59;76.58;100508.81;5327739;32;35204;-65
2022/12/06 04:54:29;;;;;;;;;;;;;;;8.74;70.52;100517.97;5339687;32;35408;-84
2022/12/06 04:57:31;;;;;;;;;;;;;;;7.99;72.85;100513.06;5325867;32;35242;-65
2022/12/06 05:00:33;;;;;;;;;;;;;;;8.35;72.38;100508.59;5343395;32;34370;-66
2022/12/06 05:03:35;;;;;;;;;;;;;;;7.59;76.33;100521.03;5330039;32;35561;-66
2022/12/06 05:06:44;;;;;;;;;;;;;;;7.57;77.91;100510.63;5329231;32;44508;-85
2022/12/06 05:09:46;;;;;;;;;;;;;;;8.29;72.74;100507.87;5354453;32;35397;-66
2022/12/06 05:12:48;;;;;;;;;;;;;;;8.15;73.47;100482.94;5337346;32;35288;-66
2022/12/06 05:15:57;;;;;;;;;;;;;;;9.15;67.92;100490.53;5350397;32;34888;-65
2022/12/06 05:18:59;;;;;;;;;;;;;;;9.01;68.91;100484.81;5339814;32;35453;-84
2022/12/06 05:22:01;;;;;;;;;;;;;;;9.02;69.17;100482.19;5354423;32;35603;-84
2022/12/06 05:25:03;;;;;;;;;;;;;;;9.14;68.36;100476.53;5321333;32;35509;-67
2022/12/06 05:28:05;;;;;;;;;;;;;;;8.54;70.05;100501.06;5330249;32;36394;-67
2022/12/06 05:31:07;;;;;;;;;;;;;;;8.03;73.79;100498.97;5342046;32;36116;-84
2022/12/06 05:34:09;;;;;;;;;;;;;;;9.14;68.46;100486.16;5322428;32;44516;-84
2022/12/06 05:37:11;;;;;;;;;;;;;;;9.07;68.89;100492.50;5342484;32;35396;-65
2022/12/06 05:40:13;;;;;;;;;;;;;;;8.60;69.62;100497.41;5325713;32;34723;-65
2022/12/06 05:43:15;;;;;;;;;;;;;;;9.29;68.10;100501.41;5337771;32;35220;-66
2022/12/06 05:46:16;;;;;;;;;;;;;;;9.07;68.59;100506.47;5327918;32;35305;-67
2022/12/06 05:49:18;;;;;;;;;;;;;;;8.84;69.08;100501.09;5330550;32;34101;-67
2022/12/06 05:52:20;;;;;;;;;;;;;;;8.89;69.46;100496.56;5343395;32;34985;-81
2022/12/06 05:55:22;;;;;;;;;;;;;;;8.64;71.30;100486.81;5328081;32;34980;-65
2022/12/06 05:58:25;;;;;;;;;;;;;;;8.80;70.06;100483.72;5343763;32;35397;-66
2022/12/06 06:01:27;;;;;;;;;;;;;;;9.20;68.34;100480.72;5325255;32;35394;-84
2022/12/06 06:04:29;;;;;;;;;;;;;;;9.12;68.56;100488.84;5342795;32;35680;-65
2022/12/06 06:07:31;;;;;;;;;;;;;;;9.35;67.68;100482.88;5322432;32;35495;-65
2022/12/06 06:10:32;;;;;;;;;;;;;;;9.33;66.92;100482.03;5327409;32;34985;-85
2022/12/06 06:13:34;;;;;;;;;;;;;;;9.22;67.73;100481.56;5335743;32;35323;-75
2022/12/06 06:16:36;;;;;;;;;;;;;;;9.15;67.92;100457.28;5326317;32;35166;-67
2022/12/06 06:19:38;;;;;;;;;;;;;;;8.94;69.02;100468.44;5343283;32;47047;-65
2022/12/06 06:22:41;;;;;;;;;;;;;;;9.03;68.68;100468.16;5336466;32;34910;-67
2022/12/06 06:25:43;;;;;;;;;;;;;;;8.86;68.46;100462.56;5324678;32;34636;-78
2022/12/06 06:28:45;;;;;;;;;;;;;;;8.74;70.04;100458.56;5340872;32;35496;-84
2022/12/06 06:31:47;;;;;;;;;;;;;;;8.59;70.81;100467.75;5321953;32;35026;-67
2022/12/06 06:34:48;;;;;;;;;;;;;;;8.20;72.57;100459.25;5333340;32;35146;-66
2022/12/06 06:37:50;;;;;;;;;;;;;;;8.52;72.18;100447.88;5326638;32;35519;-74
2022/12/06 06:40:52;;;;;;;;;;;;;;;9.49;67.51;100457.03;5330172;32;36326;-75
2022/12/06 06:43:54;;;;;;;;;;;;;;;9.36;66.26;100458.34;5316485;32;34737;-75
2022/12/06 06:46:56;;;;;;;;;;;;;;;9.30;66.52;100457.69;5337286;32;34347;-70
2022/12/06 06:49:58;;;;;;;;;;;;;;;8.88;67.81;100451.13;5331922;32;34300;-80
2022/12/06 06:53:00;;;;;;;;;;;;;;;7.87;73.27;100447.97;5327439;32;35830;-66
2022/12/06 06:56:02;;;;;;;;;;;;;;;8.89;69.97;100447.63;5336955;32;36046;-82
2022/12/06 06:59:05;;;;;;;;;;;;;;;8.66;69.93;100444.84;5325661;32;35556;-83
2022/12/06 07:02:08;;;;;;;;;;;;;;;7.59;73.33;100459.12;5337653;32;44737;-73
2022/12/06 07:05:10;;;;;;;;;;;;;;;7.37;76.73;100447.50;5318223;32;34784;-75
2022/12/06 07:08:12;;;;;;;;;;;;;;;7.27;76.47;100444.25;5331950;32;35823;-66
2022/12/06 07:11:14;;;;;;;;;;;;;;;8.01;75.03;100442.34;5329246;32;36111;-66
2022/12/06 07:14:16;;;;;;;;;;;;;;;8.20;73.18;100442.69;5333747;32;36063;-65
2022/12/06 07:17:18;;;;;;;;;;;;;;;8.67;70.21;100439.53;5337665;32;34355;-79
2022/12/06 07:20:20;;;;;;;;;;;;;;;8.26;72.86;100440.75;5324051;32;35185;-67
2022/12/06 07:23:23;;;;;;;;;;;;;;;7.85;73.95;100437.50;5340945;32;34998;-65
2022/12/06 07:26:24;;;;;;;;;;;;;;;8.00;75.02;100444.09;5309047;32;34291;-69
2022/12/06 07:29:26;;;;;;;;;;;;;;;9.32;67.34;100445.38;5328628;32;35093;-70
2022/12/06 07:32:32;;;;;;;;;;;;;;;9.51;66.34;100459.59;5332768;32;34157;-82
2022/12/06 07:35:34;;;;;;;;;;;;;;;9.49;65.93;100459.66;5334297;32;34839;-69
2022/12/06 07:38:56;;;;;;;;;;;;;;;9.25;67.15;100463.06;5335605;32;34650;-72
2022/12/06 07:45:20;;;;;;;;;;;;;;;8.22;73.70;100441.72;5336549;32;34331;-82
2022/12/06 07:48:24;;;;;;;;;;;;;;;7.65;77.15;100426.72;5333188;32;34298;-92
2022/12/06 07:51:26;;;;;;;;;;;;;;;7.83;75.02;100423.63;5330785;32;34309;-74
2022/12/06 07:54:28;;;;;;;;;;;;;;;9.18;70.46;100424.84;5322725;32;34396;-74
2022/12/06 07:57:30;;;;;;;;;;;;;;;9.40;67.72;100430.22;5309894;32;35389;-73
2022/12/06 08:00:32;;;;;;;;;;;;;;;9.25;68.89;100436.84;5328820;32;34652;-71
2022/12/06 08:03:37;;;;;;;;;;;;;;;8.90;69.37;100441.47;5324341;32;33503;-80
2022/12/06 08:06:39;;;;;;;;;;;;;;;8.50;71.52;100441.84;5334276;32;44471;-79
2022/12/06 08:09:41;;;;;;;;;;;;;;;9.19;69.14;100442.28;5343104;32;32709;-75
2022/12/06 08:12:43;;;;;;;;;;;;;;;8.34;72.44;100445.75;5325938;32;34511;-76
2022/12/06 08:15:45;;;;;;;;;;;;;;;8.63;71.06;100452.78;5332595;32;36530;-77
2022/12/06 08:18:47;;;;;;;;;;;;;;;8.21;72.58;100460.09;5318501;32;35609;-89
2022/12/06 08:21:50;;;;;;;;;;;;;;;8.64;71.56;100457.13;5341075;32;35474;-89
2022/12/06 08:24:52;;;;;;;;;;;;;;;9.43;67.25;100466.88;5317881;32;34331;-80
2022/12/06 08:27:54;;;;;;;;;;;;;;;9.60;65.90;100464.56;5329824;32;34391;-74
2022/12/06 08:30:56;;;;;;;;;;;;;;;9.32;66.75;100463.72;5325288;32;36013;-66
2022/12/06 08:34:07;;;;;;;;;;;;;;;9.41;67.13;100479.19;5333087;32;35382;-70
2022/12/06 08:37:09;;;;;;;;;;;;;;;8.01;72.19;100479.84;5347335;32;45653;-68
2022/12/06 08:40:11;;;;;;;;;;;;;;;7.72;75.34;100475.38;5324538;32;34691;-77
2022/12/06 08:43:13;;;;;;;;;;;;;;;7.62;75.77;100476.50;5336765;32;34458;-74
2022/12/06 08:46:15;;;;;;;;;;;;;;;8.02;73.62;100473.69;5325484;32;35172;-84
2022/12/06 08:49:17;;;;;;;;;;;;;;;7.85;74.73;100478.50;5337107;32;34391;-76
2022/12/06 08:52:19;;;;;;;;;;;;;;;8.23;73.91;100476.63;5342028;32;35920;-78
2022/12/06 08:55:21;;;;;;;;;;;;;;;8.20;72.44;100474.97;5322733;32;34416;-72
2022/12/06 08:58:23;;;;;;;;;;;;;;;8.55;70.75;100473.97;5338722;32;35799;-87
2022/12/06 09:01:26;;;;;;;;;;;;;;;9.05;69.53;100475.97;5323280;32;36022;-88
2022/12/06 09:04:34;;;;;;;;;;;;;;;8.55;70.55;100481.81;5328101;32;37254;-79
2022/12/06 09:07:36;;;;;;;;;;;;;;;7.94;73.28;100480.91;5330925;32;34894;-73
2022/12/06 09:10:38;;;;;;;;;;;;;;;8.15;72.01;100480.31;5320184;32;45657;-79
2022/12/06 09:13:40;;;;;;;;;;;;;;;8.66;66.68;100479.75;5310366;32;987255;-81
2022/12/06 09:16:43;;;;;;;;;;;;;;;8.57;66.07;100471.31;5320823;32;34331;-81
2022/12/06 09:19:45;;;;;;;;;;;;;;;8.75;65.79;100460.28;5342728;32;34356;-81
2022/12/06 09:22:47;;;;;;;;;;;;;;;8.04;68.31;100458.81;5327681;32;34827;-68
2022/12/06 09:25:50;;;;;;;;;;;;;;;9.21;63.92;100461.47;5315586;32;34220;-68
2022/12/06 09:28:53;;;;;;;;;;;;;;;9.05;62.58;100465.47;5340129;32;33673;-66
2022/12/06 09:31:55;;;;;;;;;;;;;;;8.15;64.99;100469.84;5339572;32;34234;-66
2022/12/06 09:34:56;;;;;;;;;;;;;;;7.67;67.29;100465.94;5346122;32;35018;-67
2022/12/06 09:37:58;;;;;;;;;;;;;;;7.96;66.10;100463.41;5322191;32;34359;-68
2022/12/06 09:41:19;;;;;;;;;;;;;;;8.47;64.06;100465.47;5331007;32;34300;-70
2022/12/06 09:44:39;;;;;;;;;;;;;;;8.43;65.50;100471.69;5323476;32;34261;-71
2022/12/06 09:48:02;;;;;;;;;;;;;;;8.27;66.83;100471.25;5321247;32;44605;-70
2022/12/06 09:51:14;;;;;;;;;;;;;;;9.07;63.12;100475.00;5330764;32;35392;-69
2022/12/06 09:54:29;;;;;;;;;;;;;;;9.31;62.40;100470.75;5316281;32;46148;-69
2022/12/06 09:57:37;;;;;;;;;;;;;;;8.11;65.05;100483.94;5334699;32;34212;-71
2022/12/06 10:00:50;;;;;;;;;;;;;;;7.93;65.23;100479.19;5321662;32;45004;-78
2022/12/06 10:03:56;;;;;;;;;;;;;;;8.11;65.16;100467.34;5315867;32;33926;-69
2022/12/06 10:07:14;;;;;;;;;;;;;;;8.64;63.57;100472.84;5316552;32;36713;-68
2022/12/06 10:10:19;;;;;;;;;;;;;;;8.86;63.56;100465.19;5322156;32;44399;-68
2022/12/06 10:13:27;;;;;;;;;;;;;;;9.29;62.13;100455.97;5315939;32;34381;-68
2022/12/06 10:16:38;;;;;;;;;;;;;;;8.73;62.31;100446.38;5323423;32;34516;-67
2022/12/06 10:19:46;;;;;;;;;;;;;;;7.64;64.34;100455.53;5318689;32;45427;-66
2022/12/06 10:23:00;;;;;;;;;;;;;;;7.80;65.65;100449.88;5326614;32;34864;-68
2022/12/06 10:26:02;;;;;;;;;;;;;;;7.91;65.18;100449.56;5282194;32;34426;-66
2022/12/06 10:29:19;;;;;;;;;;;;;;;8.28;63.17;100440.69;5325274;32;35879;-68
2022/12/06 10:32:34;;;;;;;;;;;;;;;8.46;63.35;100441.97;5308512;32;35731;-67
2022/12/06 10:35:41;;;;;;;;;;;;;;;8.83;62.04;100428.62;5338871;32;35409;-68
2022/12/06 10:38:50;;;;;;;;;;;;;;;8.52;62.38;100416.44;5331451;32;44613;-69
2022/12/06 10:41:55;;;;;;;;;;;;;;;7.65;64.36;100411.03;5323769;32;36924;-66
2022/12/06 10:47:02;;;;;;;;;;;;;;;8.22;63.95;100391.97;5327963;32;33989;-68
2022/12/06 10:48:52;;;;;;;;;;;;;;;8.55;62.97;100403.25;5319427;32;36124;-79
2022/12/06 10:51:56;;;;;;;;;;;;;;;8.06;64.07;100399.44;5325636;32;36282;-76
2022/12/06 10:55:01;;;;;;;;;;;;;;;9.18;60.26;100399.47;5328362;32;34138;-67
2022/12/06 10:58:15;;;;;;;;;;;;;;;8.56;61.97;100402.31;5317007;32;34279;-66
2022/12/06 11:01:18;;;;;;;;;;;;;;;8.65;61.35;100409.06;5324357;32;44665;-67
2022/12/06 11:04:20;;;;;;;;;;;;;;;8.50;62.30;100402.53;5320485;32;35972;-66
2022/12/06 11:07:23;;;;;;;;;;;;;;;9.86;59.32;100397.16;5316149;32;34347;-65
2022/12/06 11:10:26;;;;;;;;;;;;;;;9.69;58.17;100395.12;5336948;32;34248;-67
2022/12/06 11:13:39;;;;;;;;;;;;;;;9.89;58.22;100389.16;5323842;32;35549;-66
2022/12/06 11:16:46;;;;;;;;;;;;;;;10.38;56.57;100379.50;5331559;32;44851;-67
2022/12/06 11:19:49;;;;;;;;;;;;;;;10.68;54.65;100375.66;5325721;32;34369;-68
2022/12/06 11:23:10;;;;;;;;;;;;;;;11.26;52.88;100375.06;5336598;32;34353;-67
2022/12/06 11:26:17;;;;;;;;;;;;;;;11.91;51.82;100369.63;5310135;32;44541;-74
2022/12/06 11:29:18;;;;;;;;;;;;;;;12.97;47.86;100368.12;5322176;32;36223;-71
2022/12/06 11:32:20;;;;;;;;;;;;;;;12.73;48.04;100366.69;5336126;32;34338;-79
2022/12/06 11:35:23;;;;;;;;;;;;;;;11.03;52.41;100374.25;5319508;32;33915;-78
2022/12/06 11:38:25;;;;;;;;;;;;;;;10.89;51.73;100376.59;5323730;32;34318;-70
2022/12/06 11:41:29;;;;;;;;;;;;;;;11.26;51.98;100365.38;5318618;32;34425;-69
2022/12/06 11:44:41;;;;;;;;;;;;;;;11.24;51.73;100366.37;5312831;32;34556;-69
2022/12/06 11:47:58;;;;;;;;;;;;;;;11.58;50.30;100368.44;5328058;32;34389;-75
2022/12/06 11:51:00;;;;;;;;;;;;;;;11.29;51.17;100378.44;5319982;32;36888;-66
2022/12/06 11:54:06;;;;;;;;;;;;;;;10.71;53.12;100372.06;5320733;32;34409;-68
2022/12/06 11:57:16;;;;;;;;;;;;;;;10.01;53.99;100383.47;5331570;32;44373;-73
2022/12/06 12:00:24;;;;;;;;;;;;;;;8.30;58.44;100387.38;5327487;32;34411;-74
2022/12/06 12:03:30;;;;;;;;;;;;;;;8.87;57.63;100385.66;5331740;32;34376;-77
2022/12/06 12:06:36;;;;;;;;;;;;;;;8.02;58.86;100389.09;5310881;32;34420;-69
2022/12/06 12:09:51;;;;;;;;;;;;;;;9.14;56.47;100382.13;5350207;32;44852;-68
2022/12/06 12:16:17;;;;;;;;;;;;;;;8.67;58.11;100384.53;5320837;32;44451;-65
2022/12/06 12:19:29;;;;;;;;;;;;;;;8.67;57.52;100384.53;5326100;32;33400;-68
2022/12/06 12:22:38;;;;;;;;;;;;;;;8.97;56.78;100391.47;5316811;32;34427;-67
2022/12/06 12:25:43;;;;;;;;;;;;;;;8.86;56.80;100387.41;5305234;32;44663;-65
2022/12/06 12:28:46;;;;;;;;;;;;;;;9.04;56.38;100382.50;5314706;32;34588;-69
2022/12/06 12:31:53;;;;;;;;;;;;;;;8.22;58.25;100381.50;5325785;32;34499;-69
2022/12/06 12:34:56;;;;;;;;;;;;;;;8.99;57.18;100394.91;5334677;32;34326;-67
2022/12/06 12:38:22;;;;;;;;;;;;;;;8.96;55.76;100390.63;5312129;32;35454;-68
2022/12/06 12:41:44;;;;;;;;;;;;;;;8.42;57.68;100391.41;5318706;32;34424;-85
2022/12/06 12:44:46;;;;;;;;;;;;;;;8.48;56.50;100380.75;5305446;32;44474;-70
2022/12/06 12:47:55;;;;;;;;;;;;;;;8.47;57.93;100386.91;5328387;32;34625;-69
2022/12/06 12:50:58;;;;;;;;;;;;;;;8.71;57.77;100384.44;5336941;32;35857;-73
2022/12/06 12:54:04;;;;;;;;;;;;;;;8.99;56.48;100389.66;5320766;32;34153;-79
2022/12/06 12:57:09;;;;;;;;;;;;;;;8.41;57.17;100389.72;5336757;32;35632;-74
2022/12/06 13:00:15;;;;;;;;;;;;;;;8.09;57.88;100393.25;5339584;32;44245;-71
2022/12/06 13:03:18;;;;;;;;;;;;;;;8.39;58.49;100381.06;5326112;32;36938;-73
2022/12/06 13:06:47;;;;;;;;;;;;;;;7.40;61.12;100379.44;5336113;32;45528;-70
2022/12/06 13:10:11;;;;;;;;;;;;;;;7.99;59.11;100387.44;5314703;32;34218;-71
2022/12/06 13:13:15;;;;;;;;;;;;;;;8.30;58.58;100386.50;5331025;32;44578;-72
2022/12/06 13:16:19;;;;;;;;;;;;;;;8.12;59.89;100380.94;5316825;32;34387;-69
2022/12/06 13:19:23;;;;;;;;;;;;;;;8.90;57.49;100382.94;5307743;32;34328;-73
2022/12/06 13:22:27;;;;;;;;;;;;;;;7.86;60.30;100388.66;5340056;32;34077;-76
2022/12/06 13:25:29;;;;;;;;;;;;;;;8.35;58.57;100379.37;5310560;32;36641;-72
2022/12/06 13:28:32;;;;;;;;;;;;;;;8.49;58.56;100384.22;5338219;32;36327;-73
2022/12/06 13:31:35;;;;;;;;;;;;;;;7.95;59.70;100380.56;5327774;32;35316;-74
2022/12/06 13:34:42;;;;;;;;;;;;;;;8.34;58.96;100383.75;5341658;32;34144;-74
2022/12/06 13:37:51;;;;;;;;;;;;;;;8.33;58.63;100384.66;5325913;32;34236;-67
2022/12/06 13:40:56;;;;;;;;;;;;;;;8.16;59.15;100386.91;5325501;32;35593;-73
2022/12/06 13:43:58;;;;;;;;;;;;;;;8.53;58.53;100386.72;5332656;32;35030;-76
2022/12/06 13:47:19;;;;;;;;;;;;;;;9.27;56.54;100382.56;5313259;32;34304;-67
2022/12/06 13:50:22;;;;;;;;;;;;;;;8.58;57.23;100382.19;5328818;32;34339;-77
2022/12/06 13:53:27;;;;;;;;;;;;;;;7.77;59.15;100391.53;5319317;32;38217;-70
2022/12/06 13:56:33;;;;;;;;;;;;;;;9.00;56.33;100383.50;5320716;32;34414;-72
2022/12/06 13:59:38;;;;;;;;;;;;;;;8.74;57.04;100382.56;5328855;32;34653;-93
2022/12/06 14:02:42;;;;;;;;;;;;;;;8.54;57.12;100384.97;5320443;32;44334;-68
2022/12/06 14:06:01;;;;;;;;;;;;;;;10.04;53.36;100357.09;5346684;32;34345;-70
2022/12/06 14:09:10;;;;;;;;;;;;;;;8.58;56.65;100389.22;5313938;32;44894;-78
2022/12/06 14:12:17;;;;;;;;;;;;;;;9.64;54.15;100382.16;5325692;32;34809;-76
2022/12/06 14:15:19;;;;;;;;;;;;;;;9.47;53.81;100379.31;5324810;32;34433;-68
2022/12/06 14:18:22;;;;;;;;;;;;;;;10.36;51.63;100376.91;5327353;32;34480;-67
2022/12/06 14:21:35;;;;;;;;;;;;;;;9.00;54.81;100388.75;5323702;32;34292;-88
2022/12/06 14:24:39;;;;;;;;;;;;;;;9.05;55.02;100386.84;5305389;32;35521;-66
2022/12/06 14:27:46;;;;;;;;;;;;;;;8.20;57.51;100385.94;5317026;32;35536;-69
2022/12/06 14:30:48;;;;;;;;;;;;;;;8.82;56.05;100379.69;5324110;32;34153;-66
2022/12/06 14:33:50;;;;;;;;;;;;;;;8.23;57.32;100388.44;5316176;32;34268;-73
2022/12/06 14:36:53;;;;;;;;;;;;;;;8.23;57.59;100390.22;5328356;32;34401;-82
2022/12/06 14:39:55;;;;;;;;;;;;;;;7.76;58.45;100389.81;5322746;32;35134;-66
2022/12/06 14:43:14;;;;;;;;;;;;;;;7.91;57.96;100391.12;5324453;32;44912;-68
2022/12/06 14:46:16;;;;;;;;;;;;;;;7.75;58.66;100388.97;5312844;32;34237;-66
2022/12/06 14:52:59;;;;;;;;;;;;;;;7.74;58.13;100379.41;5328301;32;46322;-65
2022/12/06 14:56:03;;;;;;;;;;;;;;;7.75;57.89;100388.97;5320260;32;34637;-78
2022/12/06 14:59:08;;;;;;;;;;;;;;;7.27;59.85;100389.34;5311155;32;35361;-77
2022/12/06 15:02:19;;;;;;;;;;;;;;;7.37;59.20;100395.22;5296435;32;44494;-67
2022/12/06 15:05:42;;;;;;;;;;;;;;;7.46;58.86;100394.09;5306359;32;35023;-66
2022/12/06 15:08:45;;;;;;;;;;;;;;;7.80;58.92;100401.94;5328083;32;44832;-66
2022/12/06 15:15:33;;;;;;;;;;;;;;;7.13;58.54;100401.06;5328666;32;34214;-65
2022/12/06 15:18:36;;;;;;;;;;;;;;;7.54;57.95;100406.09;5324943;32;35615;-77
2022/12/06 15:21:38;;;;;;;;;;;;;;;8.58;55.58;100395.31;5326264;32;46441;-66
2022/12/06 15:24:42;;;;;;;;;;;;;;;7.58;57.44;100401.62;5317007;32;35463;-79
2022/12/06 15:27:44;;;;;;;;;;;;;;;7.73;57.32;100400.34;5323593;32;34483;-66
2022/12/06 15:30:46;;;;;;;;;;;;;;;8.75;54.84;100401.75;5336559;32;33118;-67
2022/12/06 15:33:48;;;;;;;;;;;;;;;8.23;54.41;100404.16;5316367;32;35868;-66
2022/12/06 15:36:50;;;;;;;;;;;;;;;7.69;56.46;100409.19;5333928;32;34424;-65
2022/12/06 15:40:13;;;;;;;;;;;;;;;8.45;54.88;100406.19;5336040;32;45172;-76
2022/12/06 15:43:21;;;;;;;;;;;;;;;8.09;55.06;100409.81;5317682;32;35065;-66
2022/12/06 15:46:24;;;;;;;;;;;;;;;8.24;54.84;100397.16;5340077;32;34974;-66
2022/12/06 15:49:26;;;;;;;;;;;;;;;8.48;54.86;100412.19;5323009;32;33394;-66
2022/12/06 15:52:27;;;;;;;;;;;;;;;7.38;56.91;100416.97;5336611;32;34791;-78
2022/12/06 15:55:29;;;;;;;;;;;;;;;7.80;55.96;100417.63;5334421;32;34918;-78
2022/12/06 15:58:31;;;;;;;;;;;;;;;7.92;55.18;100419.91;5313972;32;34999;-79
2022/12/06 16:01:40;;;;;;;;;;;;;;;7.65;56.11;100410.16;5335709;32;35473;-78
2022/12/06 16:04:49;;;;;;;;;;;;;;;7.76;55.75;100423.81;5321565;32;45683;-77
2022/12/06 16:07:51;;;;;;;;;;;;;;;7.76;56.08;100421.22;5334838;32;35288;-77
2022/12/06 16:10:52;;;;;;;;;;;;;;;8.00;55.42;100417.06;5325378;32;32683;-78
2022/12/06 16:14:14;;;;;;;;;;;;;;;7.49;57.03;100426.28;5329182;32;45008;-79
2022/12/06 16:17:16;;;;;;;;;;;;;;;7.76;56.08;100421.22;5334829;32;35568;-66
2022/12/06 16:20:30;;;;;;;;;;;;;;;7.99;55.51;100410.13;5332004;32;34607;-66
2022/12/06 16:27:13;;;;;;;;;;;;;;;7.27;57.08;100422.47;5315435;32;35454;-67
2022/12/06 16:30:15;;;;;;;;;;;;;;;7.73;55.93;100416.03;5343778;32;34884;-77
2022/12/06 16:33:18;;;;;;;;;;;;;;;6.98;58.54;100416.22;5342300;32;35727;-66
2022/12/06 16:36:21;;;;;;;;;;;;;;;7.26;57.11;100431.22;5319955;32;35048;-78